^^
B2 Weather Station Historical Data
Daily Summary for June 20, 2019 Units:  Metric    English   Both
Daily Weekly Monthly Yearly Custom
  High: Low: Average:
Temperature: 20.7 °C 13.6 °C 16.5 °C
Dew Point: 18.2 °C 12.8 °C 15.3 °C
Humidity: 95% 83% 92%
Wind Speed: 25.9km/h 0km/h 10.3km/h
Wind Gust: 16.3km/h - -
Wind- - NW
Pressure: 1012.8 hPa 999.9 hPa -
Precipitation: 10.16 mm    
Historical Graphs
 
 
Tabular Data for June 20, 2019
Time Temperature Dew Point Pressure Wind Wind Speed Wind Gust Humidity Rainfall Rate (Hourly) solar
00:04 14.7 °C 13.9 °C 1002.3 hPa North 14.8 km/h 12.1 km/h 95% 5.59 mm 0.00 W/m2
00:09 14.6 °C 13.8 °C 1002.3 hPa North 14.8 km/h 7.1 km/h 95% 6.6 mm 0.00 W/m2
00:14 14.5 °C 13.7 °C 1002.3 hPa NNW 13 km/h 4.3 km/h 95% 7.37 mm 0.00 W/m2
00:19 14.3 °C 13.6 °C 1002.3 hPa NNW 16.7 km/h 8.7 km/h 95% 7.37 mm 0.00 W/m2
00:24 14.3 °C 13.5 °C 1002.3 hPa NNW 13 km/h 10.9 km/h 95% 7.37 mm 0.00 W/m2
00:29 14.2 °C 13.4 °C 1001.9 hPa NNW 13 km/h 11.6 km/h 95% 7.87 mm 0.00 W/m2
00:34 14.1 °C 13.3 °C 1001.9 hPa North 16.7 km/h 13.7 km/h 95% 8.13 mm 0.00 W/m2
00:39 14 °C 13.2 °C 1001.6 hPa NNE 18.5 km/h 12.7 km/h 95% 8.13 mm 0.00 W/m2
00:44 13.9 °C 13.2 °C 1001.6 hPa North 13 km/h 10.6 km/h 95% 8.13 mm 0.00 W/m2
00:49 13.9 °C 13.2 °C 1001.6 hPa North 22.2 km/h 12.6 km/h 95% 7.87 mm 0.00 W/m2
00:54 13.9 °C 13.1 °C 1001.6 hPa NNW 16.7 km/h 12.4 km/h 95% 7.37 mm 0.00 W/m2
00:59 13.8 °C 13.1 °C 1001.6 hPa North 14.8 km/h 9.5 km/h 95% 6.6 mm 0.00 W/m2
01:04 13.9 °C 13.1 °C 1001.2 hPa North 11.1 km/h 5.1 km/h 95% 5.59 mm 0.00 W/m2
01:09 13.9 °C 13.2 °C 1001.2 hPa NNW 13 km/h 8.5 km/h 95% 4.57 mm 0.00 W/m2
01:14 13.9 °C 13.1 °C 1001.2 hPa NNW 13 km/h 9.5 km/h 95% 3.56 mm 0.00 W/m2
01:19 13.9 °C 13.1 °C 1001.2 hPa NNE 9.3 km/h 4.2 km/h 95% 2.79 mm 0.00 W/m2
01:24 13.9 °C 13.2 °C 1001.2 hPa North 9.3 km/h 6.3 km/h 95% 2.29 mm 0.00 W/m2
01:29 14 °C 13.2 °C 1000.9 hPa North 14.8 km/h 9.5 km/h 95% 1.52 mm 0.00 W/m2
01:34 14 °C 13.2 °C 1000.6 hPa North 13 km/h 7.7 km/h 95% 1.02 mm 0.00 W/m2
01:39 13.9 °C 13.2 °C 1000.6 hPa NW 9.3 km/h 7.1 km/h 95% 0.76 mm 0.00 W/m2
01:44 13.9 °C 13.1 °C 1000.9 hPa NW 8 km/h 2.4 km/h 95% 0.51 mm 0.00 W/m2
01:49 13.9 °C 13.1 °C 1000.6 hPa NNW 9.7 km/h 5.1 km/h 95% 0.51 mm 0.00 W/m2
01:54 13.9 °C 13.1 °C 1000.6 hPa NNW 13 km/h 9.2 km/h 95% 0.51 mm 0.00 W/m2
01:59 13.8 °C 13.1 °C 1000.6 hPa NNW 11.1 km/h 6.6 km/h 95% 0.25 mm 0.00 W/m2
02:04 13.7 °C 12.9 °C 1000.6 hPa NNW 16.7 km/h 12.2 km/h 95% 0.25 mm 0.00 W/m2
02:09 13.7 °C 12.9 °C 1000.2 hPa NNW 13 km/h 8.4 km/h 95% 0.25 mm 0.00 W/m2
02:14 13.7 °C 12.9 °C 1000.2 hPa NNW 13 km/h 9.2 km/h 95% 0.25 mm 0.00 W/m2
02:19 13.6 °C 12.8 °C 1000.2 hPa North 9.7 km/h 5.8 km/h 95% 0.25 mm 0.00 W/m2
02:24 13.6 °C 12.8 °C 1000.2 hPa North 6.4 km/h 6.4 km/h 95% 0 mm 0.00 W/m2
02:29 13.6 °C 12.8 °C 1000.2 hPa NNW 13 km/h 8 km/h 95% 0 mm 0.00 W/m2
02:34 13.6 °C 12.8 °C 1000.2 hPa North 7.4 km/h 5.5 km/h 95% 0 mm 0.00 W/m2
02:39 13.6 °C 12.8 °C 1000.6 hPa NNW 9.3 km/h 5.8 km/h 95% 0 mm 0.00 W/m2
02:44 13.6 °C 12.8 °C 1000.6 hPa NNW 8 km/h 5.3 km/h 95% 0 mm 0.00 W/m2
02:49 13.6 °C 12.8 °C 1000.6 hPa North 7.4 km/h 2.7 km/h 95% 0 mm 0.00 W/m2
02:54 13.6 °C 12.8 °C 1000.6 hPa NW 5.6 km/h 3.1 km/h 95% 0 mm 0.00 W/m2
02:59 13.6 °C 12.8 °C 1000.6 hPa NW 3.7 km/h 2.6 km/h 95% 0 mm 0.00 W/m2
03:04 13.6 °C 12.8 °C 1000.6 hPa NNW 9.3 km/h 4.5 km/h 95% 0 mm 0.00 W/m2
03:09 13.6 °C 12.8 °C 1000.2 hPa NNW 11.1 km/h 6 km/h 95% 0 mm 0.00 W/m2
03:14 13.7 °C 12.9 °C 1000.2 hPa NNW 9.3 km/h 6.9 km/h 95% 0 mm 0.00 W/m2
03:19 13.7 °C 12.9 °C 1000.2 hPa NNW 9.3 km/h 6.6 km/h 95% 0 mm 0.00 W/m2
03:24 13.7 °C 12.9 °C 1000.2 hPa NNW 9.7 km/h 6 km/h 95% 0 mm 0.00 W/m2
03:29 13.8 °C 13 °C 1000.2 hPa NNW 9.3 km/h 7.1 km/h 95% 0 mm 0.00 W/m2
03:34 13.8 °C 13 °C 1000.2 hPa NNW 11.3 km/h 7.2 km/h 95% 0 mm 0.00 W/m2
03:39 13.8 °C 13.1 °C 1000.2 hPa NNW 5.6 km/h 4.7 km/h 95% 0 mm 0.00 W/m2
03:44 13.8 °C 13.1 °C 1000.2 hPa NNW 7.4 km/h 6.3 km/h 95% 0 mm 0.00 W/m2
03:49 13.9 °C 13.1 °C 1000.2 hPa NNW 9.3 km/h 5.8 km/h 95% 0 mm 0.00 W/m2
03:55 13.9 °C 13.2 °C 1000.2 hPa NNW 9.3 km/h 7.2 km/h 95% 0 mm 0.00 W/m2
03:59 13.9 °C 13.2 °C 999.9 hPa North 9.7 km/h 7.9 km/h 95% 0 mm 0.00 W/m2
04:04 14 °C 13.2 °C 999.9 hPa North 11.1 km/h 7.7 km/h 95% 0 mm 0.00 W/m2
04:09 14 °C 13.2 °C 999.9 hPa NNW 14.8 km/h 11.3 km/h 95% 0 mm 0.00 W/m2
04:14 14.1 °C 13.3 °C 999.9 hPa North 9.3 km/h 8.7 km/h 95% 0 mm 0.00 W/m2
04:19 14.1 °C 13.3 °C 999.9 hPa NNW 14.8 km/h 10 km/h 95% 0 mm 0.00 W/m2
04:24 14.1 °C 13.3 °C 999.9 hPa NW 11.1 km/h 4.3 km/h 95% 0 mm 0.00 W/m2
04:29 14.1 °C 13.3 °C 999.9 hPa NNW 5.6 km/h 5.1 km/h 95% 0 mm 0.00 W/m2
04:35 14.1 °C 13.3 °C 999.9 hPa NNW 13 km/h 6.3 km/h 95% 0 mm 0.00 W/m2
04:39 14.2 °C 13.4 °C 999.9 hPa NNW 11.1 km/h 7.7 km/h 95% 0 mm 0.00 W/m2
04:44 14.2 °C 13.4 °C 999.9 hPa NNW 9.7 km/h 7.1 km/h 95% 0 mm 0.00 W/m2
04:49 14.2 °C 13.4 °C 1000.2 hPa NNW 11.3 km/h 7.2 km/h 95% 0 mm 0.00 W/m2
04:54 14.3 °C 13.5 °C 1000.2 hPa NW 9.3 km/h 4 km/h 95% 0 mm 0.00 W/m2
04:59 14.3 °C 13.5 °C 1000.2 hPa NW 5.6 km/h 2.3 km/h 95% 0 mm 0.00 W/m2
05:04 14.3 °C 13.6 °C 1000.2 hPa NW 8 km/h 4.5 km/h 95% 0 mm 0.00 W/m2
05:09 14.4 °C 13.6 °C 1000.2 hPa WNW 9.3 km/h 8.4 km/h 95% 0 mm 0.00 W/m2
05:14 14.4 °C 13.7 °C 1000.2 hPa WNW 11.1 km/h 6.3 km/h 95% 0 mm 0.00 W/m2
05:19 14.6 °C 13.8 °C 1000.6 hPa NW 13 km/h 3.4 km/h 95% 0.25 mm 0.00 W/m2
05:24 14.6 °C 13.8 °C 1000.6 hPa NNW 7.4 km/h 4.5 km/h 95% 0.25 mm 0.00 W/m2
05:29 14.7 °C 13.9 °C 1000.6 hPa NW 11.1 km/h 4 km/h 95% 0.25 mm 0.00 W/m2
05:34 14.7 °C 13.9 °C 1000.9 hPa NW 7.4 km/h 3.7 km/h 95% 0.25 mm 0.00 W/m2
05:39 14.8 °C 14 °C 1000.6 hPa NW 5.6 km/h 4.7 km/h 95% 0.25 mm 0.00 W/m2
05:44 14.8 °C 14 °C 1000.9 hPa NW 11.1 km/h 6.4 km/h 95% 0.25 mm 0.00 W/m2
05:50 14.8 °C 14 °C 1000.9 hPa NW 13 km/h 6.6 km/h 95% 0.51 mm 0.00 W/m2
05:54 14.8 °C 14.1 °C 1000.9 hPa North 14.8 km/h 11.9 km/h 95% 0.76 mm 0.00 W/m2
05:59 14.8 °C 14.1 °C 1000.9 hPa WNW 16.7 km/h 13.5 km/h 95% 0.76 mm 0.00 W/m2
06:04 14.9 °C 14.1 °C 1001.2 hPa WNW 18.5 km/h 11.1 km/h 95% 1.02 mm 0.00 W/m2
06:09 14.9 °C 14.2 °C 1001.2 hPa West 16.7 km/h 7.6 km/h 95% 1.02 mm 0.00 W/m2
06:14 14.9 °C 14.2 °C 1001.2 hPa WNW 16.7 km/h 10.9 km/h 95% 1.02 mm 0.00 W/m2
06:20 14.9 °C 14.2 °C 1001.2 hPa NW 13 km/h 8.9 km/h 95% 1.02 mm 0.00 W/m2
06:24 15 °C 14.2 °C 1001.6 hPa WNW 14.8 km/h 7.1 km/h 95% 1.27 mm 0.00 W/m2
06:29 15 °C 14.2 °C 1001.6 hPa NW 18.5 km/h 9.7 km/h 95% 1.27 mm 5.00 W/m2
06:34 15 °C 14.2 °C 1001.6 hPa NNW 18.5 km/h 11.1 km/h 95% 1.52 mm 9.00 W/m2
06:39 15.1 °C 14.3 °C 1001.6 hPa NNW 24.1 km/h 11.3 km/h 95% 1.78 mm 12.00 W/m2
06:44 15.1 °C 14.3 °C 1001.9 hPa WNW 13 km/h 8 km/h 95% 2.03 mm 11.00 W/m2
06:49 15.2 °C 14.4 °C 1001.9 hPa NW 14.8 km/h 8.9 km/h 95% 1.78 mm 14.00 W/m2
06:54 15.2 °C 14.4 °C 1001.9 hPa NW 14.8 km/h 10.3 km/h 95% 1.78 mm 18.00 W/m2
06:59 15.3 °C 14.5 °C 1001.9 hPa NW 14.8 km/h 7.6 km/h 95% 1.78 mm 19.00 W/m2
07:04 15.2 °C 14.4 °C 1002.3 hPa NW 14.8 km/h 12.2 km/h 95% 1.78 mm 16.00 W/m2
07:09 15.2 °C 14.4 °C 1002.3 hPa WNW 18.5 km/h 9.7 km/h 95% 2.03 mm 16.00 W/m2
07:15 15.2 °C 14.4 °C 1002.3 hPa NW 24.1 km/h 15.1 km/h 95% 1.78 mm 16.00 W/m2
07:20 15.2 °C 14.4 °C 1001.9 hPa NNW 24.1 km/h 14 km/h 95% 1.78 mm 18.00 W/m2
07:24 15.2 °C 14.4 °C 1001.9 hPa NW 18.5 km/h 12.7 km/h 95% 1.52 mm 30.00 W/m2
07:29 15.2 °C 14.4 °C 1002.3 hPa NNW 18.5 km/h 10.6 km/h 95% 1.78 mm 46.00 W/m2
07:34 15.3 °C 14.5 °C 1002.3 hPa NW 18.5 km/h 11.4 km/h 95% 1.52 mm 62.00 W/m2
07:39 15.3 °C 14.6 °C 1002.3 hPa NW 18.5 km/h 9.5 km/h 95% 1.27 mm 72.00 W/m2
07:44 15.4 °C 14.7 °C 1002.3 hPa NNW 16.7 km/h 10.9 km/h 95% 1.02 mm 88.00 W/m2
07:49 15.6 °C 14.8 °C 1002.3 hPa NNW 16.7 km/h 11.3 km/h 95% 1.02 mm 81.00 W/m2
07:54 15.6 °C 14.8 °C 1002.3 hPa NW 19.3 km/h 12.7 km/h 95% 0.76 mm 79.00 W/m2
07:59 15.7 °C 14.9 °C 1002.3 hPa NW 14.8 km/h 10 km/h 95% 0.76 mm 128.00 W/m2
08:04 15.8 °C 15.1 °C 1002.3 hPa NW 20.4 km/h 10.8 km/h 95% 0.51 mm 163.00 W/m2
08:09 15.9 °C 15.2 °C 1002.3 hPa NW 18.5 km/h 15.4 km/h 95% 0.25 mm 169.00 W/m2
08:14 16.1 °C 15.3 °C 1002.6 hPa NW 18.5 km/h 12.4 km/h 95% 0.25 mm 116.00 W/m2
08:20 16.2 °C 15.4 °C 1002.6 hPa NW 20.4 km/h 15 km/h 95% 0.25 mm 116.00 W/m2
08:24 16.2 °C 15.4 °C 1002.6 hPa NNW 18.5 km/h 11.7 km/h 95% 0.25 mm 93.00 W/m2
08:29 16.3 °C 15.5 °C 1002.9 hPa NW 18.5 km/h 11.7 km/h 95% 0 mm 146.00 W/m2
08:35 16.3 °C 15.6 °C 1002.9 hPa NW 16.7 km/h 10.8 km/h 95% 0 mm 77.00 W/m2
08:39 16.4 °C 15.6 °C 1002.9 hPa NNW 18.5 km/h 11.3 km/h 95% 0 mm 83.00 W/m2
08:44 16.3 °C 15.6 °C 1002.9 hPa NNW 22.2 km/h 12.4 km/h 95% 0 mm 91.00 W/m2
08:49 16.4 °C 15.6 °C 1002.9 hPa WNW 14.8 km/h 9.8 km/h 95% 0 mm 84.00 W/m2
08:54 16.4 °C 15.6 °C 1002.9 hPa NW 18.5 km/h 11.1 km/h 95% 0 mm 156.00 W/m2
08:59 16.5 °C 15.7 °C 1002.9 hPa NNW 18.5 km/h 14 km/h 95% 0 mm 211.00 W/m2
09:05 16.7 °C 15.9 °C 1002.9 hPa NNW 20.4 km/h 11.9 km/h 95% 0 mm 211.00 W/m2
09:09 16.9 °C 16.1 °C 1002.9 hPa NNW 18.5 km/h 7.6 km/h 95% 0 mm 283.00 W/m2
09:14 17.1 °C 16.2 °C 1002.9 hPa NNW 20.4 km/h 13.7 km/h 95% 0 mm 209.00 W/m2
09:19 16.9 °C 16.1 °C 1002.9 hPa NNW 18.5 km/h 11.6 km/h 95% 0 mm 135.00 W/m2
09:24 16.8 °C 16 °C 1002.9 hPa NNW 25.9 km/h 15.4 km/h 95% 0 mm 123.00 W/m2
09:29 16.7 °C 15.9 °C 1002.9 hPa NNW 20.4 km/h 13.8 km/h 95% 0 mm 188.00 W/m2
09:34 16.8 °C 16 °C 1002.9 hPa North 22.2 km/h 16.1 km/h 95% 0 mm 167.00 W/m2
09:39 16.8 °C 16 °C 1002.9 hPa North 20.4 km/h 12.6 km/h 95% 0 mm 207.00 W/m2
09:45 16.8 °C 16 °C 1002.9 hPa NNW 19.3 km/h 14.3 km/h 95% 0 mm 225.00 W/m2
09:49 16.9 °C 15.9 °C 1003.3 hPa NNW 19.3 km/h 16.3 km/h 94% 0 mm 199.00 W/m2
09:54 17 °C 16 °C 1003.3 hPa NNW 20.4 km/h 12.6 km/h 94% 0 mm 149.00 W/m2
09:59 17.1 °C 16.1 °C 1003.3 hPa NW 18.5 km/h 11.9 km/h 94% 0 mm 179.00 W/m2
10:04 17.1 °C 16.1 °C 1003.6 hPa NNW 17.7 km/h 10.8 km/h 94% 0 mm 200.00 W/m2
10:09 17 °C 16 °C 1003.6 hPa NNW 16.7 km/h 15.9 km/h 94% 0 mm 179.00 W/m2
10:14 16.9 °C 15.9 °C 1003.6 hPa NNW 18.5 km/h 14.8 km/h 94% 0 mm 216.00 W/m2
10:19 17.1 °C 16.1 °C 1003.9 hPa NW 16.7 km/h 9.3 km/h 94% 0 mm 167.00 W/m2
10:24 17.1 °C 16.1 °C 1003.9 hPa NW 24.1 km/h 13.4 km/h 94% 0 mm 211.00 W/m2
10:29 17.2 °C 16.2 °C 1003.9 hPa North 20.4 km/h 12.7 km/h 94% 0 mm 253.00 W/m2
10:34 17.3 °C 16.3 °C 1004.3 hPa NNW 20.4 km/h 9.5 km/h 94% 0 mm 253.00 W/m2
10:39 17.4 °C 16.4 °C 1004.3 hPa NW 16.7 km/h 10.3 km/h 94% 0 mm 301.00 W/m2
10:45 17.6 °C 16.4 °C 1004.3 hPa NNW 20.4 km/h 14.5 km/h 93% 0 mm 301.00 W/m2
10:49 17.6 °C 16.4 °C 1004.3 hPa NNW 13 km/h 8.5 km/h 93% 0 mm 230.00 W/m2
10:54 17.6 °C 16.4 °C 1004.6 hPa NNW 16.7 km/h 9.8 km/h 93% 0 mm 299.00 W/m2
10:59 17.6 °C 16.4 °C 1004.6 hPa NW 24.1 km/h 9.8 km/h 93% 0 mm 360.00 W/m2
11:04 17.8 °C 16.7 °C 1004.6 hPa NW 16.7 km/h 12.7 km/h 93% 0 mm 666.00 W/m2
11:09 18.1 °C 16.9 °C 1005 hPa NW 18.5 km/h 11.3 km/h 93% 0 mm 297.00 W/m2
11:15 18 °C 16.7 °C 1005 hPa WNW 18.5 km/h 9.5 km/h 92% 0 mm 227.00 W/m2
11:19 17.8 °C 16.5 °C 1005 hPa NNW 18.5 km/h 10.5 km/h 92% 0 mm 237.00 W/m2
11:24 17.8 °C 16.5 °C 1005 hPa WNW 18.5 km/h 10.3 km/h 92% 0 mm 283.00 W/m2
11:29 17.9 °C 16.6 °C 1005 hPa NNW 16.7 km/h 10.1 km/h 92% 0 mm 330.00 W/m2
11:34 18.1 °C 16.7 °C 1005 hPa NW 14.8 km/h 7.7 km/h 92% 0 mm 190.00 W/m2
11:39 18 °C 16.7 °C 1005.3 hPa NNW 14.8 km/h 6.9 km/h 92% 0 mm 255.00 W/m2
11:44 18.1 °C 16.7 °C 1005.6 hPa NW 14.8 km/h 9.5 km/h 92% 0 mm 295.00 W/m2
11:49 18 °C 16.5 °C 1005.3 hPa NW 16.7 km/h 10.3 km/h 91% 0 mm 230.00 W/m2
11:54 17.9 °C 16.6 °C 1005.3 hPa NNW 16.7 km/h 7.9 km/h 92% 0 mm 199.00 W/m2
11:59 17.9 °C 16.4 °C 1005.3 hPa North 13 km/h 12.1 km/h 91% 0 mm 294.00 W/m2
12:04 17.9 °C 16.6 °C 1005.6 hPa North 16.7 km/h 10 km/h 92% 0 mm 188.00 W/m2
12:09 17.9 °C 16.6 °C 1005.6 hPa NNW 18.5 km/h 10.3 km/h 92% 0 mm 394.00 W/m2
12:14 18.1 °C 16.9 °C 1005.6 hPa NNW 18.5 km/h 12.2 km/h 93% 0 mm 469.00 W/m2
12:19 18.3 °C 17 °C 1005.6 hPa NNW 14.5 km/h 9.5 km/h 92% 0 mm 520.00 W/m2
12:24 18.4 °C 16.9 °C 1005.6 hPa WNW 13 km/h 10.9 km/h 91% 0 mm 503.00 W/m2
12:29 18.5 °C 16.8 °C 1006 hPa NW 16.7 km/h 10.9 km/h 90% 0 mm 392.00 W/m2
12:31 18.6 °C 16.9 °C 1006 hPa NNW 14.8 km/h 11.7 km/h 90% 0 mm 320.00 W/m2
12:33 18.4 °C 16.8 °C 1006 hPa NNW 18.5 km/h 12.7 km/h 90% 0 mm 265.00 W/m2
12:37 18.4 °C 16.7 °C 1006 hPa NW 14.8 km/h 9.2 km/h 90% 0 mm 338.00 W/m2
12:46 18.3 °C 16.8 °C 1006.3 hPa NW 16.7 km/h 11.3 km/h 91% 0 mm 241.00 W/m2
12:53 18.2 °C 16.7 °C 1006.3 hPa NW 16.7 km/h 11.6 km/h 91% 0 mm 306.00 W/m2
12:58 18.1 °C 16.6 °C 1006.3 hPa WNW 13 km/h 8.2 km/h 91% 0 mm 422.00 W/m2
13:04 18.2 °C 16.7 °C 1006.3 hPa NW 14.8 km/h 9.7 km/h 91% 0 mm 276.00 W/m2
13:09 18.1 °C 16.6 °C 1006.7 hPa NNW 14.8 km/h 13 km/h 91% 0 mm 195.00 W/m2
13:14 18.2 °C 16.8 °C 1006.7 hPa NW 11.1 km/h 9.3 km/h 92% 0 mm 248.00 W/m2
13:19 18.1 °C 16.6 °C 1006.7 hPa NW 16.7 km/h 10 km/h 91% 0 mm 253.00 W/m2
13:24 17.9 °C 16.4 °C 1006.7 hPa NNW 14.8 km/h 13.2 km/h 91% 0 mm 202.00 W/m2
13:29 17.9 °C 16.6 °C 1006.7 hPa NNW 20.9 km/h 12.9 km/h 92% 0 mm 392.00 W/m2
13:34 18.1 °C 16.7 °C 1006.7 hPa NW 16.7 km/h 9.3 km/h 92% 0 mm 253.00 W/m2
13:39 17.9 °C 16.4 °C 1007 hPa NNW 20.4 km/h 10 km/h 91% 0 mm 248.00 W/m2
13:44 17.9 °C 16.6 °C 1007 hPa NNW 16.7 km/h 10.9 km/h 92% 0 mm 258.00 W/m2
13:49 18.1 °C 16.6 °C 1007 hPa NW 14.5 km/h 9.3 km/h 91% 0 mm 436.00 W/m2
13:54 18.3 °C 16.8 °C 1007 hPa NNW 19.3 km/h 11.6 km/h 91% 0 mm 234.00 W/m2
13:59 18.2 °C 16.5 °C 1007 hPa North 22.2 km/h 14.5 km/h 90% 0 mm 357.00 W/m2
14:04 18.2 °C 16.7 °C 1007 hPa NNW 16.1 km/h 9.7 km/h 91% 0 mm 260.00 W/m2
14:09 18.1 °C 16.6 °C 1007 hPa NW 7.4 km/h 5.1 km/h 91% 0 mm 269.00 W/m2
14:14 18.2 °C 16.7 °C 1007 hPa North 16.7 km/h 9.2 km/h 91% 0 mm 253.00 W/m2
14:19 18.1 °C 16.6 °C 1007 hPa NNW 14.8 km/h 10.8 km/h 91% 0 mm 258.00 W/m2
14:24 18.2 °C 16.7 °C 1007.3 hPa NW 9.7 km/h 7.2 km/h 91% 0 mm 283.00 W/m2
14:29 18.2 °C 16.7 °C 1007.3 hPa NW 11.1 km/h 7.9 km/h 91% 0 mm 113.00 W/m2
14:34 18 °C 16.3 °C 1007.3 hPa NNW 14.8 km/h 10.9 km/h 90% 0 mm 149.00 W/m2
14:39 17.9 °C 16.4 °C 1007.3 hPa North 18.5 km/h 10 km/h 91% 0 mm 104.00 W/m2
14:44 17.8 °C 16.3 °C 1007.3 hPa North 14.8 km/h 13.2 km/h 91% 0 mm 116.00 W/m2
14:49 17.8 °C 16.3 °C 1007.3 hPa North 14.8 km/h 9.2 km/h 91% 0 mm 216.00 W/m2
14:54 17.9 °C 16.4 °C 1007.7 hPa NNW 14.8 km/h 8.7 km/h 91% 0 mm 202.00 W/m2
14:59 18.1 °C 16.6 °C 1007.7 hPa North 11.3 km/h 7.9 km/h 91% 0 mm 135.00 W/m2
15:04 18.1 °C 16.4 °C 1007.7 hPa North 9.3 km/h 5.1 km/h 90% 0 mm 111.00 W/m2
15:09 18.1 °C 16.4 °C 1008 hPa NNW 14.8 km/h 9.7 km/h 90% 0 mm 83.00 W/m2
15:14 18.1 °C 16.4 °C 1008 hPa North 13 km/h 11.6 km/h 90% 0 mm 63.00 W/m2
15:19 18.1 °C 16.6 °C 1008 hPa NNW 16.7 km/h 6.1 km/h 91% 0 mm 63.00 W/m2
15:24 17.9 °C 16.3 °C 1008 hPa NW 11.3 km/h 9.5 km/h 90% 0 mm 69.00 W/m2
15:29 17.8 °C 16.3 °C 1008 hPa NW 11.3 km/h 6.1 km/h 91% 0 mm 104.00 W/m2
15:34 17.8 °C 16.3 °C 1008 hPa NNW 9.3 km/h 4.3 km/h 91% 0 mm 137.00 W/m2
15:39 17.9 °C 16.4 °C 1008 hPa NNW 11.3 km/h 9.2 km/h 91% 0 mm 128.00 W/m2
15:44 17.9 °C 16.4 °C 1008 hPa NW 11.1 km/h 7.9 km/h 91% 0 mm 132.00 W/m2
15:49 17.9 °C 16.4 °C 1008 hPa NNW 9.3 km/h 4.5 km/h 91% 0 mm 69.00 W/m2
15:54 17.9 °C 16.4 °C 1008.4 hPa NNW 8 km/h 6.3 km/h 91% 0 mm 84.00 W/m2
15:59 17.9 °C 16.4 °C 1008 hPa NW 9.3 km/h 4.8 km/h 91% 0 mm 135.00 W/m2
16:04 17.9 °C 16.4 °C 1008 hPa NNW 11.1 km/h 8 km/h 91% 0 mm 95.00 W/m2
16:09 18 °C 16.5 °C 1008.4 hPa NNW 13 km/h 6.9 km/h 91% 0 mm 81.00 W/m2
16:14 18 °C 16.5 °C 1008.4 hPa NNW 9.3 km/h 6.9 km/h 91% 0 mm 95.00 W/m2
16:19 18.1 °C 16.6 °C 1008.4 hPa North 13 km/h 7.7 km/h 91% 0 mm 72.00 W/m2
16:24 18.1 °C 16.6 °C 1008.4 hPa North 12.9 km/h 9.8 km/h 91% 0 mm 165.00 W/m2
16:29 18.2 °C 16.7 °C 1008.4 hPa NNW 11.3 km/h 6.8 km/h 91% 0 mm 137.00 W/m2
16:34 18.2 °C 16.7 °C 1008.4 hPa North 7.4 km/h 4.8 km/h 91% 0 mm 70.00 W/m2
16:39 18.2 °C 16.7 °C 1008.7 hPa North 9.3 km/h 6.4 km/h 91% 0 mm 67.00 W/m2
16:44 18.2 °C 16.7 °C 1008.7 hPa NNW 11.1 km/h 7.6 km/h 91% 0 mm 98.00 W/m2
16:49 18.2 °C 16.7 °C 1008.7 hPa NNW 5.6 km/h 0.5 km/h 91% 0 mm 137.00 W/m2
16:54 18.3 °C 16.8 °C 1008.7 hPa North 5.6 km/h 3.5 km/h 91% 0 mm 148.00 W/m2
16:59 18.4 °C 16.9 °C 1008.7 hPa NNW 5.6 km/h 2.1 km/h 91% 0 mm 401.00 W/m2
17:04 18.9 °C 17.4 °C 1008.7 hPa North 5.6 km/h 2.7 km/h 91% 0 mm 401.00 W/m2
17:09 19.2 °C 17.3 °C 1008.4 hPa NNW 9.3 km/h 7.2 km/h 89% 0 mm 236.00 W/m2
17:14 19.4 °C 17.6 °C 1008.7 hPa NNW 5.6 km/h 5 km/h 89% 0 mm 297.00 W/m2
17:19 19.6 °C 17.5 °C 1008.7 hPa North 3.7 km/h 1.3 km/h 88% 0 mm 265.00 W/m2
17:24 19.6 °C 17.6 °C 1008.4 hPa Calm     88% 0 mm 183.00 W/m2
17:29 19.6 °C 17.6 °C 1008.4 hPa Calm     88% 0 mm 144.00 W/m2
17:34 19.7 °C 17.8 °C 1008.4 hPa Calm     89% 0 mm 172.00 W/m2
17:39 19.8 °C 17.7 °C 1008.4 hPa Calm     88% 0 mm 234.00 W/m2
17:44 20.1 °C 18 °C 1008.4 hPa Calm     88% 0 mm 406.00 W/m2
17:49 20.3 °C 18.1 °C 1008.4 hPa NE 7.4 km/h 0.6 km/h 87% 0 mm 392.00 W/m2
17:54 20.6 °C 18.1 °C 1008.4 hPa Calm     86% 0 mm 207.00 W/m2
17:59 20.6 °C 18.2 °C 1008.7 hPa ENE 3.7 km/h 2.1 km/h 86% 0 mm 329.00 W/m2
18:04 20.7 °C 18.2 °C 1008.7 hPa Calm     86% 0 mm 376.00 W/m2
18:09 20.6 °C 17.8 °C 1008.7 hPa ENE 5.6 km/h 4.5 km/h 84% 0 mm 174.00 W/m2
18:14 20.5 °C 17.9 °C 1009 hPa Calm     85% 0 mm 209.00 W/m2
18:19 20.4 °C 17.7 °C 1009 hPa Calm     84% 0 mm 121.00 W/m2
18:24 20.4 °C 17.6 °C 1009 hPa Calm     84% 0 mm 171.00 W/m2
18:29 20.4 °C 17.6 °C 1009 hPa Calm     84% 0 mm 262.00 W/m2
18:34 20.4 °C 17.4 °C 1009 hPa Calm     83% 0 mm 95.00 W/m2
18:39 20.3 °C 17.5 °C 1009.4 hPa Calm     84% 0 mm 107.00 W/m2
18:44 20.1 °C 17.3 °C 1009 hPa Calm     84% 0 mm 156.00 W/m2
18:49 20.1 °C 17.7 °C 1009 hPa Calm     86% 0 mm 267.00 W/m2
18:54 20.2 °C 17.7 °C 1009 hPa Calm     86% 0 mm 114.00 W/m2
18:59 20.2 °C 17.6 °C 1009 hPa Calm     85% 0 mm 193.00 W/m2
19:04 20.3 °C 17.8 °C 1009 hPa Calm     86% 0 mm 109.00 W/m2
19:09 20.3 °C 17.8 °C 1009.4 hPa Calm     86% 0 mm 128.00 W/m2
19:14 20.2 °C 17.4 °C 1009.4 hPa Calm     84% 0 mm 107.00 W/m2
19:19 20.2 °C 17.4 °C 1009.7 hPa Calm     84% 0 mm 102.00 W/m2
19:24 20.2 °C 17.4 °C 1009.7 hPa Calm     84% 0 mm 40.00 W/m2
19:29 20.1 °C 17.3 °C 1009.7 hPa Calm     84% 0 mm 46.00 W/m2
19:34 20.1 °C 17.3 °C 1009.7 hPa Calm     84% 0 mm 39.00 W/m2
19:39 20 °C 17.2 °C 1009.7 hPa Calm     84% 0 mm 33.00 W/m2
19:44 19.8 °C 17.2 °C 1009.7 hPa Calm     85% 0 mm 26.00 W/m2
19:49 19.7 °C 17.1 °C 1009.7 hPa Calm     85% 0 mm 19.00 W/m2
19:54 19.6 °C 17.2 °C 1009.7 hPa Calm     86% 0 mm 18.00 W/m2
19:59 19.3 °C 17.1 °C 1010 hPa Calm     87% 0 mm 12.00 W/m2
20:04 19.1 °C 16.9 °C 1010 hPa Calm     87% 0 mm 7.00 W/m2
20:09 18.9 °C 16.7 °C 1010 hPa Calm     87% 0 mm 5.00 W/m2
20:14 18.7 °C 16.4 °C 1010 hPa Calm     87% 0 mm 0.00 W/m2
20:19 18.4 °C 16.4 °C 1010.4 hPa Calm     88% 0 mm 0.00 W/m2
20:24 18.2 °C 16.3 °C 1010.4 hPa Calm     89% 0 mm 0.00 W/m2
20:29 18.1 °C 16.4 °C 1010.4 hPa Calm     90% 0 mm 0.00 W/m2
20:34 17.9 °C 16.2 °C 1010.4 hPa Calm     90% 0 mm 0.00 W/m2
20:39 17.7 °C 16.2 °C 1010.7 hPa Calm     91% 0 mm 0.00 W/m2
20:44 17.6 °C 16.1 °C 1010.7 hPa Calm     91% 0 mm 0.00 W/m2
20:49 17.6 °C 16.2 °C 1010.7 hPa Calm     92% 0 mm 0.00 W/m2
20:54 17.4 °C 16.1 °C 1011.1 hPa Calm     92% 0 mm 0.00 W/m2
20:59 17.3 °C 15.9 °C 1011.1 hPa Calm     92% 0 mm 0.00 W/m2
21:04 17.1 °C 15.8 °C 1011.1 hPa Calm     92% 0 mm 0.00 W/m2
21:09 16.8 °C 15.4 °C 1011.1 hPa Calm     92% 0 mm 0.00 W/m2
21:14 16.6 °C 15.3 °C 1011.1 hPa Calm     92% 0 mm 0.00 W/m2
21:19 16.3 °C 15.1 °C 1011.1 hPa Calm     92% 0 mm 0.00 W/m2
21:24 16.2 °C 14.9 °C 1011.4 hPa Calm     92% 0 mm 0.00 W/m2
21:29 16 °C 14.7 °C 1011.4 hPa Calm     92% 0 mm 0.00 W/m2
21:34 15.9 °C 14.6 °C 1011.7 hPa Calm     92% 0 mm 0.00 W/m2
21:39 15.7 °C 14.4 °C 1011.4 hPa Calm     92% 0 mm 0.00 W/m2
21:44 15.5 °C 14.2 °C 1011.4 hPa Calm     92% 0 mm 0.00 W/m2
21:49 15.3 °C 14.1 °C 1011.4 hPa Calm     92% 0 mm 0.00 W/m2
21:54 15.2 °C 14.1 °C 1011.4 hPa Calm     93% 0 mm 0.00 W/m2
21:59 15.1 °C 13.9 °C 1011.4 hPa Calm     93% 0 mm 0.00 W/m2
22:04 14.9 °C 13.8 °C 1011.4 hPa Calm     93% 0 mm 0.00 W/m2
22:09 14.8 °C 13.7 °C 1011.7 hPa Calm     93% 0 mm 0.00 W/m2
22:14 14.8 °C 13.8 °C 1011.7 hPa Calm     94% 0 mm 0.00 W/m2
22:19 14.7 °C 13.6 °C 1011.7 hPa Calm     93% 0 mm 0.00 W/m2
22:24 14.6 °C 13.6 °C 1011.7 hPa Calm     94% 0 mm 0.00 W/m2
22:29 14.4 °C 13.5 °C 1011.7 hPa Calm     94% 0 mm 0.00 W/m2
22:34 14.4 °C 13.4 °C 1011.7 hPa Calm     94% 0 mm 0.00 W/m2
22:39 14.4 °C 13.5 °C 1012.1 hPa Calm     94% 0 mm 0.00 W/m2
22:44 14.7 °C 13.7 °C 1012.1 hPa Calm     94% 0 mm 0.00 W/m2
22:49 14.7 °C 13.7 °C 1012.1 hPa Calm     94% 0 mm 0.00 W/m2
22:54 14.6 °C 13.6 °C 1012.1 hPa Calm     94% 0 mm 0.00 W/m2
22:59 14.3 °C 13.4 °C 1011.7 hPa Calm     94% 0 mm 0.00 W/m2
23:04 14.1 °C 13.2 °C 1011.7 hPa Calm     94% 0 mm 0.00 W/m2
23:09 13.9 °C 13 °C 1011.7 hPa Calm     94% 0 mm 0.00 W/m2
23:14 13.9 °C 12.9 °C 1012.1 hPa Calm     94% 0 mm 0.00 W/m2
23:19 13.9 °C 12.9 °C 1012.1 hPa Calm     94% 0 mm 0.00 W/m2
23:24 13.9 °C 13.2 °C 1012.4 hPa Calm     95% 0 mm 0.00 W/m2
23:29 14.1 °C 13.3 °C 1012.8 hPa Calm     95% 0 mm 0.00 W/m2
23:34 14.2 °C 13.4 °C 1012.8 hPa Calm     95% 0 mm 0.00 W/m2
23:39 14.3 °C 13.5 °C 1012.8 hPa Calm     95% 0 mm 0.00 W/m2
23:44 14.3 °C 13.5 °C 1012.8 hPa Calm     95% 0 mm 0.00 W/m2
23:49 14.2 °C 13.3 °C 1012.8 hPa Calm     94% 0 mm 0.00 W/m2
23:54 14.1 °C 13.1 °C 1012.8 hPa Calm     94% 0 mm 0.00 W/m2
23:59 13.9 °C 12.9 °C 1012.8 hPa Calm     94% 0 mm 0.00 W/m2
Bourbonnais, Illinois, USA
Compliments of Weather Underground - 4 mb